Time;durP1;ratioP1;P1;durP2;ratioP2;P2;SDS_P1;SDS_P2;PMS_P1;PMS_P2;Temp;Humidity;BMP_temperature;BMP_pressure;BME280_temperature;BME280_humidity;BME280_pressure;Samples;Min_cycle;Max_cycle;Signal;HPM_P1;HPM_P2
2023/08/17 00:01:56;;;;;;;7.45;5.25;;;;;;;;;;10204418;28;20553;-69
2023/08/17 00:06:52;;;;;;;6.30;5.07;;;;;;;;;;10195329;28;20699;-69
2023/08/17 00:11:48;;;;;;;10.27;5.55;;;;;;;;;;10201567;28;20512;-69
2023/08/17 00:16:45;;;;;;;7.68;5.47;;;;;;;;;;10198821;28;20404;-70
2023/08/17 00:21:41;;;;;;;6.20;5.18;;;;;;;;;;10192897;28;20042;-70
2023/08/17 00:26:37;;;;;;;7.65;5.32;;;;;;;;;;10205346;28;20103;-70
2023/08/17 00:31:34;;;;;;;9.27;5.22;;;;;;;;;;10201943;28;20554;-71
2023/08/17 00:36:30;;;;;;;7.35;5.60;;;;;;;;;;10177838;28;20049;-70
2023/08/17 00:41:28;;;;;;;7.88;5.30;;;;;;;;;;10336771;23;20112;-69
2023/08/17 00:46:25;;;;;;;7.35;5.53;;;;;;;;;;10258882;28;20044;-69
2023/08/17 00:51:23;;;;;;;6.07;5.53;;;;;;;;;;10251481;28;20099;-69
2023/08/17 00:56:19;;;;;;;6.85;5.32;;;;;;;;;;10242211;28;20057;-69
2023/08/17 01:01:16;;;;;;;6.47;5.88;;;;;;;;;;10247544;28;20212;-69
2023/08/17 01:06:12;;;;;;;6.70;5.68;;;;;;;;;;10252131;28;20046;-69
2023/08/17 01:11:18;;;;;;;7.18;5.55;;;;;;;;;;10256563;28;20045;-69
2023/08/17 01:16:19;;;;;;;5.85;5.25;;;;;;;;;;10248163;28;20057;-69
2023/08/17 01:21:16;;;;;;;6.00;5.45;;;;;;;;;;10254671;28;20052;-69
2023/08/17 01:26:15;;;;;;;9.30;5.68;;;;;;;;;;10253807;28;20064;-68
2023/08/17 01:31:14;;;;;;;7.13;5.57;;;;;;;;;;10263994;28;20613;-69
2023/08/17 01:36:31;;;;;;;5.65;5.20;;;;;;;;;;10257697;28;20049;-69
2023/08/17 01:41:28;;;;;;;10.48;6.32;;;;;;;;;;10259312;28;20057;-70
2023/08/17 01:46:28;;;;;;;6.13;5.53;;;;;;;;;;10256125;28;20522;-70
2023/08/17 01:51:25;;;;;;;7.47;5.72;;;;;;;;;;10258882;28;20053;-69
2023/08/17 01:56:21;;;;;;;7.00;5.03;;;;;;;;;;10253793;28;20466;-69
2023/08/17 02:01:17;;;;;;;6.25;5.05;;;;;;;;;;10251520;28;20050;-69
2023/08/17 02:06:14;;;;;;;8.32;5.47;;;;;;;;;;10261037;28;20061;-69
2023/08/17 02:11:10;;;;;;;8.55;5.70;;;;;;;;;;10259958;23;20050;-69
2023/08/17 02:16:07;;;;;;;6.20;4.97;;;;;;;;;;10234410;28;20046;-70
2023/08/17 02:21:03;;;;;;;6.35;5.57;;;;;;;;;;10250550;28;20045;-70
2023/08/17 02:25:59;;;;;;;6.93;5.32;;;;;;;;;;10249609;28;20523;-69
2023/08/17 02:30:56;;;;;;;7.07;4.85;;;;;;;;;;10258707;28;20048;-69
2023/08/17 02:35:53;;;;;;;7.43;5.43;;;;;;;;;;10254805;28;20068;-70
2023/08/17 02:40:50;;;;;;;7.05;6.05;;;;;;;;;;10244547;28;20049;-70
2023/08/17 02:45:46;;;;;;;8.55;6.15;;;;;;;;;;10257960;28;20049;-70
2023/08/17 02:50:42;;;;;;;8.02;5.97;;;;;;;;;;10258516;28;20049;-70
2023/08/17 02:55:39;;;;;;;6.28;5.68;;;;;;;;;;10261929;28;20064;-70
2023/08/17 03:00:35;;;;;;;6.85;5.50;;;;;;;;;;10259025;28;20058;-70
2023/08/17 03:05:31;;;;;;;6.30;5.70;;;;;;;;;;10255953;28;20057;-70
2023/08/17 03:10:27;;;;;;;7.18;6.30;;;;;;;;;;10258267;28;20507;-69
2023/08/17 03:15:24;;;;;;;17.90;7.28;;;;;;;;;;10259629;28;20080;-70
2023/08/17 03:20:20;;;;;;;6.72;6.07;;;;;;;;;;10269895;28;20140;-70
2023/08/17 03:25:18;;;;;;;7.75;6.32;;;;;;;;;;10263909;28;20048;-69
2023/08/17 03:30:15;;;;;;;7.22;6.20;;;;;;;;;;10255684;28;20144;-68
2023/08/17 03:35:12;;;;;;;6.10;5.55;;;;;;;;;;10262786;28;20089;-69
2023/08/17 03:40:09;;;;;;;6.85;6.10;;;;;;;;;;10252209;28;20057;-69
2023/08/17 03:45:06;;;;;;;6.68;6.18;;;;;;;;;;10257399;28;20092;-69
2023/08/17 03:50:02;;;;;;;7.32;6.57;;;;;;;;;;10261801;28;20077;-70
2023/08/17 03:54:58;;;;;;;7.45;6.75;;;;;;;;;;10264543;28;20061;-70
2023/08/17 03:59:55;;;;;;;7.57;6.88;;;;;;;;;;10259156;28;20111;-70
2023/08/17 04:04:51;;;;;;;6.18;5.57;;;;;;;;;;10255637;28;20095;-70
2023/08/17 04:09:47;;;;;;;10.50;6.60;;;;;;;;;;10245772;28;20041;-70
2023/08/17 04:14:44;;;;;;;7.00;6.40;;;;;;;;;;10251783;28;20514;-70
2023/08/17 04:19:40;;;;;;;8.25;6.43;;;;;;;;;;10261333;28;20060;-69
2023/08/17 04:24:37;;;;;;;7.18;6.47;;;;;;;;;;10249880;28;20072;-69
2023/08/17 04:29:33;;;;;;;6.90;6.20;;;;;;;;;;10257903;28;20049;-70
2023/08/17 04:34:29;;;;;;;9.27;7.38;;;;;;;;;;10257922;28;20063;-73
2023/08/17 04:39:26;;;;;;;8.15;7.35;;;;;;;;;;10245252;28;20128;-73
2023/08/17 04:44:22;;;;;;;8.32;7.53;;;;;;;;;;10252236;28;20104;-74
2023/08/17 04:49:18;;;;;;;9.40;8.07;;;;;;;;;;10253229;28;20426;-73
2023/08/17 04:54:15;;;;;;;9.77;8.80;;;;;;;;;;10263895;28;20041;-73
2023/08/17 04:59:11;;;;;;;9.65;8.75;;;;;;;;;;10235385;28;20056;-73
2023/08/17 05:04:08;;;;;;;10.55;8.70;;;;;;;;;;10254501;28;20595;-74
2023/08/17 05:09:05;;;;;;;10.43;9.52;;;;;;;;;;10251582;28;20072;-73
2023/08/17 05:14:02;;;;;;;12.23;9.32;;;;;;;;;;10251137;28;20500;-73
2023/08/17 05:18:59;;;;;;;14.68;10.02;;;;;;;;;;10224044;28;20414;-73
2023/08/17 05:23:56;;;;;;;10.38;9.38;;;;;;;;;;10252252;28;20104;-73
2023/08/17 06:10:37;;;;;;;14.40;13.15;;;;;;;;;;10228700;28;20054;-73
2023/08/17 06:15:33;;;;;;;14.95;13.50;;;;;;;;;;10177332;28;20053;-73
2023/08/17 06:20:30;;;;;;;13.90;12.80;;;;;;;;;;10211677;28;20069;-73
2023/08/17 06:25:26;;;;;;;14.70;13.30;;;;;;;;;;10208565;28;20739;-73
2023/08/17 06:30:23;;;;;;;14.95;13.45;;;;;;;;;;10232388;28;20060;-73
2023/08/17 06:35:19;;;;;;;15.50;13.98;;;;;;;;;;10222812;28;20119;-73
2023/08/17 06:45:59;;;;;;;15.82;14.43;;;;;;;;;;10439051;23;20045;-73
2023/08/17 07:15:57;;;;;;;15.43;13.13;;;;;;;;;;10323795;27;20128;-73
2023/08/17 07:31:38;;;;;;;13.68;12.57;;;;;;;;;;10170013;28;20041;-72
2023/08/17 07:36:37;;;;;;;12.98;11.98;;;;;;;;;;10261372;28;20422;-73
2023/08/17 07:41:33;;;;;;;14.60;13.50;;;;;;;;;;10260166;28;20107;-73
2023/08/17 07:46:29;;;;;;;14.10;12.70;;;;;;;;;;10251914;28;20042;-72
2023/08/17 07:51:26;;;;;;;13.93;12.82;;;;;;;;;;10254786;28;20063;-72
2023/08/17 07:56:22;;;;;;;14.10;13.00;;;;;;;;;;10250756;28;20045;-72
2023/08/17 08:01:18;;;;;;;13.43;12.32;;;;;;;;;;10714164;22;20050;-72
2023/08/17 08:06:15;;;;;;;14.13;12.80;;;;;;;;;;10234559;28;20143;-72
2023/08/17 08:11:11;;;;;;;14.10;12.77;;;;;;;;;;10338995;22;20415;-72
2023/08/17 08:16:07;;;;;;;14.18;12.73;;;;;;;;;;10260741;28;20466;-72
2023/08/17 08:21:04;;;;;;;13.20;12.10;;;;;;;;;;10500153;23;20057;-72
2023/08/17 08:26:00;;;;;;;12.88;11.82;;;;;;;;;;10238143;28;20096;-72
2023/08/17 08:36:24;;;;;;;;;;;;;;;;;;;;;
2023/08/17 08:41:31;;;;;;;13.88;12.57;;;;;;;;;;10183000;28;20062;-72
2023/08/17 08:46:29;;;;;;;13.90;12.35;;;;;;;;;;10204196;28;20056;-72
2023/08/17 08:51:30;;;;;;;15.50;14.20;;;;;;;;;;10189751;28;20431;-72
2023/08/17 08:56:26;;;;;;;13.65;12.70;;;;;;;;;;10189395;28;20569;-72
2023/08/17 09:01:24;;;;;;;13.30;12.20;;;;;;;;;;10202303;28;20050;-68
2023/08/17 09:06:21;;;;;;;12.75;11.48;;;;;;;;;;10189746;28;20050;-68
2023/08/17 09:11:18;;;;;;;12.65;11.65;;;;;;;;;;10206649;28;20099;-68
2023/08/17 09:16:14;;;;;;;13.07;11.95;;;;;;;;;;10208600;28;20053;-68
2023/08/17 09:21:19;;;;;;;12.48;11.57;;;;;;;;;;10212369;28;20048;-68
2023/08/17 09:26:18;;;;;;;12.73;11.60;;;;;;;;;;10204485;28;20516;-69
2023/08/17 09:31:15;;;;;;;12.48;11.52;;;;;;;;;;10203611;28;20050;-69
2023/08/17 09:36:12;;;;;;;12.07;11.18;;;;;;;;;;10193663;28;20037;-68
2023/08/17 09:41:09;;;;;;;13.10;12.02;;;;;;;;;;10185579;22;20037;-69
2023/08/17 09:46:07;;;;;;;11.20;10.40;;;;;;;;;;10137636;28;20046;-69
2023/08/17 09:51:05;;;;;;;11.38;10.57;;;;;;;;;;10161340;28;20054;-69
2023/08/17 09:56:02;;;;;;;12.15;11.15;;;;;;;;;;10146485;28;20116;-69
2023/08/17 10:01:01;;;;;;;11.57;10.55;;;;;;;;;;10155287;28;20042;-69
2023/08/17 10:06:04;;;;;;;12.52;11.38;;;;;;;;;;10144438;28;20053;-69
2023/08/17 10:11:02;;;;;;;11.23;10.25;;;;;;;;;;10140432;28;20182;-68
2023/08/17 10:16:02;;;;;;;10.80;10.10;;;;;;;;;;10142373;28;20049;-69
2023/08/17 10:21:05;;;;;;;11.15;10.30;;;;;;;;;;10161257;28;20053;-69
2023/08/17 10:26:02;;;;;;;10.00;9.30;;;;;;;;;;10154038;28;20061;-69
2023/08/17 10:30:59;;;;;;;9.95;9.25;;;;;;;;;;10151722;28;20735;-69
2023/08/17 10:35:55;;;;;;;10.43;9.52;;;;;;;;;;10145571;28;20043;-69
2023/08/17 10:41:21;;;;;;;11.48;10.57;;;;;;;;;;10150548;28;20038;-69
2023/08/17 10:46:17;;;;;;;11.48;10.73;;;;;;;;;;10115065;28;20073;-69
2023/08/17 10:51:14;;;;;;;11.38;10.48;;;;;;;;;;10149726;28;20085;-69
2023/08/17 10:56:11;;;;;;;10.70;10.00;;;;;;;;;;10153452;28;20520;-69
2023/08/17 11:01:08;;;;;;;10.82;10.02;;;;;;;;;;10219771;22;20496;-68
2023/08/17 11:06:15;;;;;;;10.77;10.07;;;;;;;;;;10234970;28;20472;-68
2023/08/17 11:11:14;;;;;;;11.48;10.57;;;;;;;;;;10218397;23;20487;-68
2023/08/17 11:16:11;;;;;;;11.70;10.90;;;;;;;;;;10217053;28;20565;-69
2023/08/17 11:21:14;;;;;;;11.65;10.65;;;;;;;;;;10199058;28;20073;-69
2023/08/17 11:26:15;;;;;;;11.63;10.80;;;;;;;;;;10169619;28;20171;-69
2023/08/17 11:31:15;;;;;;;12.85;11.88;;;;;;;;;;10162209;28;20420;-69
2023/08/17 11:36:12;;;;;;;13.75;12.65;;;;;;;;;;10162779;28;20488;-69
2023/08/17 11:41:25;;;;;;;13.05;11.82;;;;;;;;;;10164201;28;20038;-69
2023/08/17 11:46:22;;;;;;;12.95;11.95;;;;;;;;;;10169135;28;20095;-69
2023/08/17 11:51:30;;;;;;;12.30;11.20;;;;;;;;;;10171224;28;20050;-69
2023/08/17 11:56:27;;;;;;;12.82;11.82;;;;;;;;;;10167255;28;20186;-69
2023/08/17 12:01:23;;;;;;;13.30;12.27;;;;;;;;;;10173001;28;20464;-69
2023/08/17 12:06:20;;;;;;;14.52;13.30;;;;;;;;;;10191856;28;20042;-69
2023/08/17 12:11:26;;;;;;;13.50;12.40;;;;;;;;;;10254795;22;20072;-69
2023/08/17 12:16:22;;;;;;;13.10;12.10;;;;;;;;;;10218547;28;20104;-69
2023/08/17 12:21:22;;;;;;;13.07;12.05;;;;;;;;;;10310348;22;20053;-69
2023/08/17 12:26:19;;;;;;;13.45;12.38;;;;;;;;;;10155277;28;20056;-69
2023/08/17 12:31:20;;;;;;;13.07;12.15;;;;;;;;;;10154717;28;20054;-69
2023/08/17 12:36:18;;;;;;;13.65;12.57;;;;;;;;;;10153398;28;20062;-69
2023/08/17 12:41:14;;;;;;;13.25;12.30;;;;;;;;;;10157035;28;20077;-69
2023/08/17 12:46:11;;;;;;;12.75;11.68;;;;;;;;;;10154770;28;20050;-68
2023/08/17 12:51:07;;;;;;;12.68;11.52;;;;;;;;;;10153286;28;20393;-69
2023/08/17 12:56:03;;;;;;;13.00;11.90;;;;;;;;;;10154233;28;20472;-68
2023/08/17 13:01:00;;;;;;;12.77;11.70;;;;;;;;;;10154397;28;20042;-68
2023/08/17 13:05:56;;;;;;;13.45;12.45;;;;;;;;;;10178471;28;20058;-68
2023/08/17 13:10:52;;;;;;;13.02;11.93;;;;;;;;;;10153006;28;20500;-68
2023/08/17 13:15:49;;;;;;;12.80;11.90;;;;;;;;;;10152451;28;20070;-68
2023/08/17 13:20:45;;;;;;;11.52;10.55;;;;;;;;;;10154279;28;20092;-69
2023/08/17 13:25:42;;;;;;;11.30;10.50;;;;;;;;;;10152883;28;20042;-69
2023/08/17 13:30:39;;;;;;;11.43;10.57;;;;;;;;;;10152459;28;20058;-68
2023/08/17 13:35:35;;;;;;;10.88;9.82;;;;;;;;;;10152688;28;20061;-69
2023/08/17 13:40:33;;;;;;;11.13;10.30;;;;;;;;;;10154903;28;20054;-69
2023/08/17 13:45:29;;;;;;;11.10;10.30;;;;;;;;;;10151612;28;20038;-69
2023/08/17 13:50:26;;;;;;;11.23;10.10;;;;;;;;;;10150772;28;20468;-69
2023/08/17 13:55:22;;;;;;;10.95;10.05;;;;;;;;;;10150235;28;20515;-69
2023/08/17 14:00:18;;;;;;;10.98;10.18;;;;;;;;;;10151428;28;20598;-69
2023/08/17 14:05:15;;;;;;;10.05;9.27;;;;;;;;;;10151922;28;20524;-69
2023/08/17 14:10:11;;;;;;;11.02;10.13;;;;;;;;;;10155767;28;20492;-68
2023/08/17 14:15:24;;;;;;;10.15;9.25;;;;;;;;;;10148183;28;20046;-69
2023/08/17 14:20:20;;;;;;;11.00;10.02;;;;;;;;;;10163533;28;20082;-69
2023/08/17 14:25:17;;;;;;;9.88;9.00;;;;;;;;;;10153927;28;20076;-69
2023/08/17 14:30:13;;;;;;;11.27;10.25;;;;;;;;;;10169322;28;20100;-69
2023/08/17 14:35:09;;;;;;;10.45;9.40;;;;;;;;;;10151304;28;20444;-70
2023/08/17 14:40:08;;;;;;;10.35;9.55;;;;;;;;;;10243519;22;20076;-70
2023/08/17 14:45:05;;;;;;;10.43;9.43;;;;;;;;;;10194969;28;20046;-70
2023/08/17 14:50:03;;;;;;;10.40;9.50;;;;;;;;;;10187793;28;20081;-70
2023/08/17 14:55:00;;;;;;;10.85;10.05;;;;;;;;;;10189920;28;20046;-70
2023/08/17 14:59:57;;;;;;;11.30;10.40;;;;;;;;;;10189576;28;20042;-70
2023/08/17 15:04:53;;;;;;;10.65;9.75;;;;;;;;;;10190012;28;20074;-70
2023/08/17 15:09:50;;;;;;;10.93;10.13;;;;;;;;;;10192262;28;20636;-70
2023/08/17 15:14:46;;;;;;;10.73;9.77;;;;;;;;;;10192935;28;20077;-71
2023/08/17 15:19:43;;;;;;;11.05;10.07;;;;;;;;;;10182977;28;20510;-69
2023/08/17 15:24:39;;;;;;;11.60;10.70;;;;;;;;;;10191541;28;20462;-69
2023/08/17 15:29:35;;;;;;;10.52;9.65;;;;;;;;;;10192341;28;20073;-70
2023/08/17 15:34:31;;;;;;;12.43;10.38;;;;;;;;;;10189044;28;20069;-69
2023/08/17 15:39:28;;;;;;;11.30;10.23;;;;;;;;;;10202927;28;20092;-70
2023/08/17 15:44:24;;;;;;;10.77;9.80;;;;;;;;;;10194856;28;20496;-69
2023/08/17 15:49:21;;;;;;;11.98;10.93;;;;;;;;;;10195588;28;20224;-69
2023/08/17 15:54:17;;;;;;;11.38;10.45;;;;;;;;;;10200221;28;20042;-70
2023/08/17 15:59:29;;;;;;;10.32;9.52;;;;;;;;;;10196205;28;20092;-70
2023/08/17 16:04:25;;;;;;;11.95;10.73;;;;;;;;;;10196831;28;20050;-69
2023/08/17 16:09:21;;;;;;;10.65;9.70;;;;;;;;;;10243531;22;20503;-70
2023/08/17 16:14:18;;;;;;;12.32;11.10;;;;;;;;;;10219643;28;20077;-71
2023/08/17 16:19:14;;;;;;;11.30;10.23;;;;;;;;;;10218203;22;20085;-69
2023/08/17 16:24:10;;;;;;;10.90;10.10;;;;;;;;;;10185084;28;20061;-68
2023/08/17 16:29:06;;;;;;;10.10;9.30;;;;;;;;;;10219601;22;20042;-68
2023/08/17 16:34:03;;;;;;;10.02;9.32;;;;;;;;;;10213991;28;20456;-69
2023/08/17 16:38:59;;;;;;;12.32;11.25;;;;;;;;;;10200846;28;20073;-70
2023/08/17 16:43:56;;;;;;;11.73;10.27;;;;;;;;;;10179392;28;20042;-70
2023/08/17 16:48:52;;;;;;;9.55;8.95;;;;;;;;;;10182184;28;20116;-70
2023/08/17 16:53:49;;;;;;;9.30;8.70;;;;;;;;;;10180927;28;20506;-71
2023/08/17 16:58:46;;;;;;;10.25;9.25;;;;;;;;;;10177536;28;20045;-70
2023/08/17 17:03:42;;;;;;;10.93;9.95;;;;;;;;;;10191055;28;20797;-70
2023/08/17 17:08:39;;;;;;;9.15;8.50;;;;;;;;;;10177931;28;20125;-70
2023/08/17 17:13:36;;;;;;;10.18;9.40;;;;;;;;;;10175253;28;20070;-70
2023/08/17 17:18:32;;;;;;;9.65;8.85;;;;;;;;;;10312804;22;20070;-70
2023/08/17 17:23:29;;;;;;;10.23;9.23;;;;;;;;;;10200708;28;20061;-70
2023/08/17 17:34:22;;;;;;;10.35;9.55;;;;;;;;;;9443276;26;20038;-70
2023/08/17 17:39:27;;;;;;;10.38;9.57;;;;;;;;;;10202360;22;20747;-70
2023/08/17 17:44:24;;;;;;;10.32;9.52;;;;;;;;;;10191642;28;20078;-70
2023/08/17 17:49:20;;;;;;;10.88;9.80;;;;;;;;;;10313997;23;20100;-69
2023/08/17 17:54:16;;;;;;;11.30;10.40;;;;;;;;;;10221257;28;20113;-70
2023/08/17 17:59:13;;;;;;;11.60;10.80;;;;;;;;;;10304970;23;20443;-70
2023/08/17 18:04:10;;;;;;;13.63;10.43;;;;;;;;;;10270266;28;20438;-70
2023/08/17 18:09:06;;;;;;;11.65;10.75;;;;;;;;;;10262945;28;20049;-70
2023/08/17 18:14:03;;;;;;;10.48;9.60;;;;;;;;;;10267859;28;20543;-70
2023/08/17 18:18:59;;;;;;;10.13;9.43;;;;;;;;;;10328457;22;20100;-70
2023/08/17 18:23:56;;;;;;;11.65;10.65;;;;;;;;;;10205578;28;20472;-70
2023/08/17 18:28:55;;;;;;;10.60;9.80;;;;;;;;;;10262790;22;20071;-70
2023/08/17 18:33:51;;;;;;;12.05;10.80;;;;;;;;;;10281924;28;20041;-70
2023/08/17 18:38:47;;;;;;;10.52;9.73;;;;;;;;;;10260266;28;20096;-70
2023/08/17 18:43:44;;;;;;;10.70;9.88;;;;;;;;;;10233305;28;20458;-70
2023/08/17 18:48:40;;;;;;;11.85;10.85;;;;;;;;;;10230442;28;20064;-70
2023/08/17 18:53:37;;;;;;;10.65;9.85;;;;;;;;;;10222993;28;20075;-70
2023/08/17 18:58:33;;;;;;;13.60;10.00;;;;;;;;;;10231117;28;20084;-70
2023/08/17 19:03:30;;;;;;;11.23;10.32;;;;;;;;;;10236290;28;20080;-69
2023/08/17 19:13:38;;;;;;;11.45;10.45;;;;;;;;;;10271378;22;20034;-70
2023/08/17 19:18:35;;;;;;;12.40;11.05;;;;;;;;;;10203062;28;20049;-70
2023/08/17 19:23:31;;;;;;;11.27;10.25;;;;;;;;;;10180021;28;20042;-70
2023/08/17 19:28:28;;;;;;;11.20;10.20;;;;;;;;;;10173926;28;20583;-70
2023/08/17 19:33:24;;;;;;;10.52;9.52;;;;;;;;;;10169901;28;20057;-70
2023/08/17 19:38:21;;;;;;;10.30;9.40;;;;;;;;;;10179114;28;20049;-68
2023/08/17 19:43:18;;;;;;;11.27;9.93;;;;;;;;;;10172525;28;20057;-71
2023/08/17 19:48:15;;;;;;;10.25;9.48;;;;;;;;;;10176529;28;20050;-69
2023/08/17 19:53:12;;;;;;;10.27;9.50;;;;;;;;;;10169010;28;20133;-70
2023/08/17 19:58:08;;;;;;;10.15;9.35;;;;;;;;;;10167880;28;20068;-69
2023/08/17 20:03:04;;;;;;;10.80;9.90;;;;;;;;;;10177532;28;20053;-70
2023/08/17 20:08:09;;;;;;;10.10;9.10;;;;;;;;;;10195714;22;20519;-69
2023/08/17 20:13:13;;;;;;;;;;;;;;;;;;10139025;28;20047;-70
2023/08/17 20:18:11;;;;;;;8.90;8.20;;;;;;;;;;10125229;28;19966;-70
2023/08/17 20:23:07;;;;;;;8.40;7.80;;;;;;;;;;10137653;28;20034;-70
2023/08/17 20:28:04;;;;;;;8.95;8.07;;;;;;;;;;10134603;28;20042;-70
2023/08/17 20:33:02;;;;;;;8.40;7.60;;;;;;;;;;10141960;28;20519;-70
2023/08/17 20:37:58;;;;;;;8.02;7.38;;;;;;;;;;10131512;28;20693;-71
2023/08/17 20:42:54;;;;;;;7.57;6.97;;;;;;;;;;10145276;28;20508;-70
2023/08/17 20:47:51;;;;;;;9.40;8.50;;;;;;;;;;10131566;28;20469;-70
2023/08/17 20:52:48;;;;;;;9.80;7.30;;;;;;;;;;10151933;28;20046;-70
2023/08/17 20:57:44;;;;;;;7.40;6.70;;;;;;;;;;10152846;28;20081;-70
2023/08/17 21:02:40;;;;;;;9.00;8.20;;;;;;;;;;10152210;28;20053;-70
2023/08/17 21:07:37;;;;;;;10.40;7.45;;;;;;;;;;10148257;28;20061;-69
2023/08/17 21:12:33;;;;;;;13.18;7.30;;;;;;;;;;10152275;28;20074;-70
2023/08/17 21:17:30;;;;;;;8.45;7.75;;;;;;;;;;10144053;28;20078;-70
2023/08/17 21:22:26;;;;;;;8.23;7.60;;;;;;;;;;10132605;28;20046;-70
2023/08/17 21:27:23;;;;;;;8.32;7.63;;;;;;;;;;10148803;28;20460;-70
2023/08/17 21:32:19;;;;;;;8.30;7.50;;;;;;;;;;10150902;28;20066;-69
2023/08/17 21:37:26;;;;;;;8.40;7.57;;;;;;;;;;10146120;28;20062;-69
2023/08/17 21:42:23;;;;;;;8.40;7.78;;;;;;;;;;10155204;28;20050;-69
2023/08/17 21:47:19;;;;;;;7.40;6.80;;;;;;;;;;10150740;28;20100;-70
2023/08/17 21:52:15;;;;;;;8.52;7.70;;;;;;;;;;10154542;28;20050;-70
2023/08/17 21:57:12;;;;;;;8.63;7.75;;;;;;;;;;10147579;28;20523;-70
2023/08/17 22:02:08;;;;;;;7.82;7.30;;;;;;;;;;10160690;28;20723;-69
2023/08/17 22:07:06;;;;;;;8.15;7.35;;;;;;;;;;10150325;28;20053;-69
2023/08/17 22:12:02;;;;;;;10.93;6.75;;;;;;;;;;10154533;28;20100;-69
2023/08/17 22:16:59;;;;;;;9.98;7.65;;;;;;;;;;10147934;28;20516;-68
2023/08/17 22:21:55;;;;;;;8.10;7.40;;;;;;;;;;10154003;28;20129;-69
2023/08/17 22:26:51;;;;;;;8.38;7.60;;;;;;;;;;10150780;28;20104;-69
2023/08/17 22:31:48;;;;;;;7.40;6.68;;;;;;;;;;10149385;28;20133;-69
2023/08/17 22:36:44;;;;;;;8.98;7.15;;;;;;;;;;10145895;28;20480;-69
2023/08/17 22:41:40;;;;;;;7.38;6.78;;;;;;;;;;10150822;28;20734;-68
2023/08/17 22:46:39;;;;;;;8.20;7.60;;;;;;;;;;10146629;28;20469;-69
2023/08/17 22:51:35;;;;;;;9.88;8.05;;;;;;;;;;10152096;28;20109;-69
2023/08/17 22:56:32;;;;;;;8.55;7.80;;;;;;;;;;10148674;28;20054;-69
2023/08/17 23:01:28;;;;;;;10.52;8.38;;;;;;;;;;10146421;28;20042;-69
2023/08/17 23:06:24;;;;;;;7.95;7.28;;;;;;;;;;10143067;28;20054;-69
2023/08/17 23:11:20;;;;;;;9.52;8.13;;;;;;;;;;10149321;28;20050;-69
2023/08/17 23:16:17;;;;;;;10.60;8.10;;;;;;;;;;10148013;28;20062;-69
2023/08/17 23:21:13;;;;;;;8.55;7.30;;;;;;;;;;10146674;28;20054;-68
2023/08/17 23:26:10;;;;;;;10.52;8.05;;;;;;;;;;10148313;28;20078;-69
2023/08/17 23:31:06;;;;;;;8.10;7.35;;;;;;;;;;10145712;28;20042;-70
2023/08/17 23:36:03;;;;;;;8.68;7.97;;;;;;;;;;10139549;28;20474;-68
2023/08/17 23:41:00;;;;;;;8.25;7.45;;;;;;;;;;10121777;28;20535;-70
2023/08/17 23:45:56;;;;;;;8.70;7.95;;;;;;;;;;10144464;28;20374;-69
2023/08/17 23:50:52;;;;;;;8.30;7.60;;;;;;;;;;10140431;28;20047;-69
2023/08/17 23:55:49;;;;;;;7.85;7.05;;;;;;;;;;10143913;28;20104;-68
